createdAt,value
2023-03-17T06:03:14.632Z,23.61
2023-03-17T06:04:15.680Z,23.60
2023-03-17T06:05:15.647Z,23.61
2023-03-17T06:08:15.733Z,23.61
2023-03-17T06:09:15.726Z,23.60
2023-03-17T06:10:15.747Z,23.61
2023-03-17T06:11:15.772Z,23.61
2023-03-17T06:12:15.854Z,23.60
2023-03-17T06:13:15.903Z,23.61
2023-03-17T06:14:15.944Z,23.60
2023-03-17T06:15:15.972Z,23.59
2023-03-17T06:16:16.055Z,23.57
2023-03-17T06:17:16.022Z,23.60
2023-03-17T06:18:16.043Z,23.60
2023-03-17T06:19:16.068Z,23.60
2023-03-17T06:20:16.057Z,23.60
2023-03-17T06:22:16.113Z,23.59
2023-03-17T06:23:16.102Z,23.59
2023-03-17T06:24:16.124Z,23.61
2023-03-17T06:25:16.136Z,23.61
2023-03-17T06:27:16.141Z,23.61
2023-03-17T06:29:16.150Z,23.60
2023-03-17T06:30:16.159Z,23.61
2023-03-17T06:31:16.234Z,23.59
2023-03-17T06:32:20.724Z,23.63
2023-03-17T06:33:16.142Z,23.63
2023-03-17T06:34:16.135Z,23.66
2023-03-17T06:36:16.156Z,23.63
2023-03-17T06:39:16.152Z,23.60
2023-03-17T06:41:16.095Z,23.63
2023-03-17T06:43:16.083Z,23.63
2023-03-17T06:44:16.096Z,23.66
2023-03-17T06:46:16.139Z,23.64
2023-03-17T06:48:16.075Z,23.64
2023-03-17T06:50:16.022Z,23.64
2023-03-17T06:51:16.045Z,23.66
2023-03-17T06:52:16.024Z,23.63
2023-03-17T06:53:16.014Z,23.64
2023-03-17T06:54:16.010Z,23.64
2023-03-17T06:55:16.070Z,23.66
2023-03-17T06:56:29.104Z,23.63
2023-03-17T06:57:15.991Z,23.61
2023-03-17T06:58:16.037Z,23.64
2023-03-17T06:59:16.009Z,23.66
2023-03-17T07:01:15.998Z,23.66
2023-03-17T07:02:15.955Z,23.66
2023-03-17T07:03:15.948Z,23.66
2023-03-17T07:05:15.950Z,23.28
2023-03-17T07:06:15.932Z,23.54
2023-03-17T07:07:15.969Z,23.64
2023-03-17T07:08:15.912Z,23.67
2023-03-17T07:09:15.902Z,23.73
2023-03-17T07:10:16.014Z,23.76
2023-03-17T07:11:15.915Z,23.83
2023-03-17T07:12:15.917Z,23.85
2023-03-17T07:13:15.910Z,23.83
2023-03-17T07:14:15.872Z,23.84
2023-03-17T07:15:15.885Z,23.94
2023-03-17T07:16:15.904Z,23.95
2023-03-17T07:17:15.844Z,23.95
2023-03-17T07:18:15.834Z,23.92
2023-03-17T07:19:15.868Z,23.94
2023-03-17T07:20:15.837Z,24.01
2023-03-17T07:23:15.842Z,24.11
2023-03-17T07:24:15.807Z,24.16
2023-03-17T07:26:15.821Z,24.18
2023-03-17T07:27:17.110Z,24.23
2023-03-17T07:28:15.777Z,24.26
2023-03-17T07:30:15.800Z,24.27
2023-03-17T07:31:15.824Z,24.30
2023-03-17T07:32:15.762Z,24.36
2023-03-17T07:33:15.826Z,24.34
2023-03-17T07:34:15.731Z,24.34
2023-03-17T07:35:16.768Z,24.37
2023-03-17T07:36:15.841Z,24.39
2023-03-17T07:37:15.725Z,24.36
2023-03-17T07:38:15.744Z,24.40
2023-03-17T07:39:15.751Z,24.40
2023-03-17T07:40:15.766Z,24.40
2023-03-17T07:41:15.737Z,24.40
2023-03-17T07:42:15.788Z,24.39
2023-03-17T07:43:15.759Z,24.42
2023-03-17T07:45:15.803Z,24.42
2023-03-17T07:46:15.850Z,24.40
2023-03-17T07:47:15.769Z,24.42
2023-03-17T07:48:15.787Z,24.43
2023-03-17T07:51:15.832Z,24.27
2023-03-17T07:52:15.860Z,24.20
2023-03-17T07:53:15.880Z,24.23
2023-03-17T07:55:15.927Z,24.30
2023-03-17T07:56:16.264Z,23.89
2023-03-17T07:57:16.012Z,23.81
2023-03-17T07:59:16.062Z,24.09
2023-03-17T08:02:16.132Z,24.23
2023-03-17T08:04:16.123Z,24.30
2023-03-17T08:06:16.128Z,24.39
2023-03-17T08:09:16.117Z,24.43
2023-03-17T08:12:16.119Z,24.39
2023-03-17T08:13:16.114Z,24.34
2023-03-17T08:15:16.152Z,24.42
2023-03-17T08:16:16.235Z,24.46
2023-03-17T08:17:16.221Z,24.44
2023-03-17T08:18:16.244Z,24.49
2023-03-17T08:19:16.324Z,24.50
2023-03-17T08:21:16.410Z,24.56
2023-03-17T08:24:16.643Z,24.57
2023-03-17T08:25:16.663Z,24.61
2023-03-17T08:26:16.724Z,24.64
2023-03-17T08:27:16.788Z,24.66
2023-03-17T08:29:15.789Z,24.67
2023-03-17T08:31:16.869Z,24.67
2023-03-17T08:32:16.116Z,24.70
2023-03-17T08:34:15.826Z,24.67
2023-03-17T08:35:16.835Z,24.68
2023-03-17T08:36:16.825Z,24.68
2023-03-17T08:37:16.807Z,24.67
2023-03-17T08:38:16.859Z,24.67
2023-03-17T08:39:16.909Z,24.68
2023-03-17T08:41:17.051Z,24.70
2023-03-17T08:44:16.033Z,24.70
2023-03-17T08:50:48.292Z,24.37
2023-03-17T09:13:46.965Z,24.22
2023-03-17T11:36:57.408Z,23.60
2023-03-17T11:37:55.391Z,23.61
2023-03-17T11:39:55.390Z,23.56
2023-03-17T11:40:55.384Z,23.57
2023-03-17T11:42:56.033Z,23.54
2023-03-17T11:43:55.364Z,23.56
2023-03-17T11:44:55.367Z,23.54
2023-03-17T11:46:55.859Z,23.54
2023-03-17T12:45:55.450Z,23.29
2023-03-17T12:46:55.435Z,23.32
2023-03-17T12:47:55.469Z,23.29
2023-03-17T12:48:55.483Z,23.30
2023-03-17T12:49:55.508Z,23.32
2023-03-17T12:50:55.529Z,23.29
2023-03-17T12:51:55.574Z,23.28
2023-03-17T12:52:55.615Z,23.29
2023-03-17T12:53:55.640Z,23.29
2023-03-17T12:54:55.690Z,23.29
2023-03-17T12:55:55.706Z,23.28
2023-03-17T12:56:55.774Z,23.29
2023-03-17T12:57:55.822Z,23.30
2023-03-17T12:58:55.802Z,23.28
2023-03-17T12:59:55.856Z,23.28
2023-03-17T13:00:55.896Z,23.26
2023-03-17T13:01:55.968Z,23.28
2023-03-17T13:02:55.984Z,23.26
2023-03-17T13:03:55.987Z,23.26
2023-03-17T13:04:56.002Z,23.28
2023-03-17T13:05:56.069Z,23.26
2023-03-17T13:06:56.081Z,23.26
2023-03-17T13:10:56.219Z,23.26
2023-03-17T13:11:56.290Z,23.26
2023-03-17T13:12:56.313Z,23.25
2023-03-17T13:13:56.350Z,23.26
2023-03-17T13:14:56.360Z,23.26
2023-03-17T13:15:56.401Z,23.26
2023-03-17T13:16:56.480Z,23.25
2023-03-17T13:17:56.483Z,23.25
2023-03-17T13:18:56.496Z,23.23
2023-03-17T13:19:56.534Z,23.26
2023-03-17T13:20:56.612Z,23.25
2023-03-17T13:21:56.642Z,23.26
2023-03-17T13:22:56.665Z,23.25
2023-03-17T13:23:56.706Z,23.25
2023-03-17T13:24:56.745Z,23.25
2023-03-17T13:25:55.773Z,23.23
2023-03-17T13:26:56.809Z,23.22
2023-03-17T13:27:56.873Z,23.23
2023-03-17T13:28:56.934Z,23.22
2023-03-17T13:29:56.934Z,23.23
2023-03-17T13:30:55.991Z,23.23
2023-03-17T13:31:57.003Z,23.23
2023-03-17T13:32:57.159Z,23.22
2023-03-17T13:33:57.094Z,23.22
2023-03-17T13:34:57.158Z,23.22
2023-03-17T13:35:57.248Z,23.23
2023-03-17T13:36:57.229Z,23.22
2023-03-17T13:37:57.257Z,23.22
2023-03-17T13:39:17.643Z,23.22
2023-03-17T13:39:57.306Z,23.19
2023-03-17T13:40:56.278Z,23.22
2023-03-17T13:42:00.929Z,23.23
2023-03-17T13:42:57.289Z,23.21
2023-03-17T13:43:57.269Z,23.22
2023-03-17T13:44:57.297Z,23.21
2023-03-17T13:45:57.242Z,23.22
2023-03-17T13:46:57.258Z,23.19
2023-03-17T13:47:56.241Z,23.22
2023-03-17T13:48:56.246Z,23.19
2023-03-17T13:49:56.220Z,23.19
2023-03-17T13:50:57.216Z,23.19
2023-03-17T13:52:00.190Z,23.19
2023-03-17T13:52:57.223Z,23.19
2023-03-17T13:53:57.201Z,23.19
2023-03-17T13:54:57.205Z,23.22
2023-03-17T13:55:57.199Z,23.19
2023-03-17T13:56:57.191Z,23.21
2023-03-17T13:57:57.195Z,23.18
2023-03-17T13:58:56.180Z,23.19
2023-03-17T13:59:57.162Z,23.19
2023-03-17T14:00:57.204Z,23.19
2023-03-17T14:01:57.152Z,23.18
2023-03-17T14:02:56.133Z,23.19
2023-03-17T14:03:56.153Z,23.19
2023-03-17T14:04:57.131Z,23.17
2023-03-17T14:05:57.124Z,23.18
2023-03-17T14:06:57.135Z,23.17
2023-03-17T14:07:57.110Z,23.18
2023-03-17T14:08:57.101Z,23.18
2023-03-17T14:09:56.083Z,23.18
2023-03-17T14:10:57.083Z,23.17
2023-03-17T14:11:57.082Z,23.19
2023-03-17T14:12:56.092Z,23.18
2023-03-17T14:13:57.069Z,23.18
2023-03-17T14:14:57.066Z,23.18
2023-03-17T14:15:56.094Z,23.17
2023-03-17T14:16:56.133Z,23.15
2023-03-17T14:17:56.200Z,23.15
2023-03-17T14:18:57.241Z,23.18
2023-03-17T14:19:57.257Z,23.18
2023-03-17T14:20:57.313Z,23.15
2023-03-17T14:21:56.363Z,23.15
2023-03-17T14:22:57.419Z,23.18
2023-03-17T14:23:56.473Z,23.17
2023-03-17T14:24:56.528Z,23.15
2023-03-17T14:25:56.555Z,23.15
2023-03-17T14:26:57.615Z,23.17
2023-03-17T14:27:56.685Z,23.17
2023-03-17T14:28:57.719Z,23.15
2023-03-17T14:29:56.741Z,23.14
2023-03-17T14:30:57.848Z,23.15
2023-03-17T14:31:57.917Z,23.14
2023-03-17T14:32:57.992Z,23.14
2023-03-17T14:33:56.966Z,23.14
2023-03-17T14:34:58.006Z,23.14
2023-03-17T14:35:58.150Z,23.15
2023-03-17T14:36:58.114Z,23.12
2023-03-17T14:37:58.149Z,23.11
2023-03-17T14:38:57.183Z,23.12
2023-03-17T14:39:58.242Z,23.14
2023-03-17T14:40:58.275Z,23.12
2023-03-17T14:41:58.329Z,23.14
2023-03-17T14:42:58.420Z,23.14
2023-03-17T14:43:58.459Z,23.14
2023-03-17T14:44:58.472Z,23.14
2023-03-17T14:45:58.574Z,23.12
2023-03-17T14:46:58.570Z,23.14
2023-03-17T14:47:58.623Z,23.15
2023-03-17T14:48:57.684Z,23.15
2023-03-17T14:49:57.715Z,23.12
2023-03-17T14:50:58.782Z,23.14
2023-03-17T14:51:58.820Z,23.12
2023-03-17T14:52:58.872Z,23.12
2023-03-17T14:53:57.913Z,23.14
2023-03-17T14:54:58.965Z,23.14
2023-03-17T14:55:59.025Z,23.12
2023-03-17T14:56:59.078Z,23.12
2023-03-17T14:57:58.125Z,23.14
2023-03-17T14:58:59.150Z,23.12
2023-03-17T14:59:59.227Z,23.14
2023-03-17T15:00:59.304Z,23.12
2023-03-17T15:01:59.342Z,23.11
2023-03-17T15:02:59.371Z,23.12
2023-03-17T15:03:59.400Z,23.14
2023-03-17T15:04:58.483Z,23.15
2023-03-17T15:05:58.508Z,23.15
2023-03-17T15:06:59.578Z,23.10
2023-03-17T15:07:59.613Z,23.14
2023-03-17T15:08:59.657Z,23.10
2023-03-17T15:09:59.687Z,23.11
2023-03-17T15:10:59.743Z,23.14
2023-03-17T15:11:59.796Z,23.11
2023-03-17T15:12:59.867Z,23.12
2023-03-17T15:13:58.903Z,23.12
2023-03-17T15:14:59.934Z,23.14
2023-03-17T15:15:59.983Z,23.11
2023-03-17T15:17:00.065Z,23.14
2023-03-17T15:18:00.127Z,23.11
2023-03-17T15:18:59.167Z,23.12
2023-03-17T15:20:00.202Z,23.12
2023-03-17T15:21:00.270Z,23.11
2023-03-17T15:22:00.409Z,23.14
2023-03-17T15:23:00.372Z,23.12
2023-03-17T15:23:59.381Z,23.14
2023-03-17T15:25:00.452Z,23.12
2023-03-17T15:26:00.479Z,23.11
2023-03-17T15:27:00.524Z,23.10
2023-03-17T15:28:00.604Z,23.12
2023-03-17T15:28:59.645Z,23.11
2023-03-17T15:30:00.701Z,23.12
2023-03-17T15:31:00.761Z,23.14
2023-03-17T15:32:00.793Z,23.12
2023-03-17T15:33:00.955Z,23.14
2023-03-17T15:34:00.872Z,23.14
2023-03-17T15:34:59.922Z,23.11
2023-03-17T15:36:01.032Z,23.10
2023-03-17T15:37:01.064Z,23.11
2023-03-17T15:38:00.096Z,23.12
2023-03-17T15:39:01.175Z,23.11
2023-03-17T15:40:01.191Z,23.10
2023-03-17T15:41:00.224Z,23.10
2023-03-17T15:42:01.285Z,23.08
2023-03-17T15:43:00.348Z,23.10
2023-03-17T15:44:03.414Z,23.07
2023-03-17T15:45:01.400Z,23.11
2023-03-17T15:46:01.424Z,23.11
2023-03-17T15:47:01.360Z,23.10
2023-03-17T15:48:00.357Z,23.12
2023-03-17T15:49:01.368Z,23.07
2023-03-17T15:50:01.350Z,23.02
2023-03-17T15:51:01.366Z,23.04
2023-03-17T15:52:01.311Z,22.82
2023-03-17T15:53:01.407Z,22.86
2023-03-17T15:54:01.309Z,22.86
2023-03-17T15:55:01.306Z,22.86
2023-03-17T15:56:01.301Z,22.84
2023-03-17T15:57:01.288Z,22.82
2023-03-17T15:58:01.271Z,22.67
2023-03-17T15:59:01.268Z,22.45
2023-03-17T16:00:00.272Z,22.58
2023-03-17T16:01:01.413Z,22.42
2023-03-17T16:02:01.302Z,22.55
2023-03-17T16:03:01.237Z,22.63
2023-03-17T16:05:01.235Z,22.74
2023-03-17T16:06:01.217Z,22.82
2023-03-17T16:07:01.246Z,22.86
2023-03-17T16:08:01.202Z,22.86
2023-03-17T16:17:01.287Z,23.01
2023-03-17T16:23:01.564Z,22.87
